Mitrope — 9HBH6 — position and weather

sailwx.info

Track history (hours):
 
Tides and Currents Weather Stations Pressure Air Temp Water Temp Dewpoint Dewpoint Depression Visibility Wind Speed Wind Dir Waves Ship Positions

Mitrope

Last reported at 2016-Apr-21 14:15 UTC. Time now 2016-May-06 13:05 UTC.
Position N 25°27' W 079°35'.
Warning: this ship's position is 14 days out of date.

Length 149 m; draft 7 m.

Type: Tanker. MMSI: 248360000.

Date/timePositionNaut miles runAvg speedWind from/ knotsBaromVisibWave heightAir tempDewpointWater temp
2016-Apr-21 14:15N 25°27' W 079°35'810.7
2016-Apr-21 13:31N 25°35' W 079°34'1010.6
2016-Apr-21 12:33N 25°45' W 079°33'1110.6
2016-Apr-21 11:33N 25°56' W 079°32'1110.7
2016-Apr-21 10:33N 26°07' W 079°30'1111.0
2016-Apr-21 09:33N 26°17' W 079°29'1111.1
2016-Apr-21 08:33N 26°29' W 079°27'35911.6
2016-Apr-20 01:30N 32°14' W 077°33'1010.3
2016-Apr-20 00:33N 32°23' W 077°30'9911.0
2016-Apr-19 15:33N 33°58' W 076°55'1212.3
2016-Apr-19 14:33N 34°09' W 076°51'1211.9
2016-Apr-19 13:33N 34°21' W 076°47'10 9.7
2016-Apr-19 12:33N 34°30' W 076°43'10 9.7
2016-Apr-19 11:33N 34°40' W 076°40'3 3.1
2016-Apr-19 10:28N 34°43' W 076°41'0 0.0
2016-Apr-19 09:31N 34°43' W 076°41'0 0.0
2016-Apr-19 08:22N 34°43' W 076°41'0 0.0
2016-Apr-19 07:31N 34°43' W 076°41'0 0.0
2016-Apr-19 06:31N 34°43' W 076°41'0 0.0
2016-Apr-19 05:31N 34°43' W 076°41'0 0.0
2016-Apr-19 04:31N 34°43' W 076°41'0 0.0
2016-Apr-19 03:31N 34°43' W 076°41'0 0.0
2016-Apr-19 02:31N 34°43' W 076°41'0 0.0
2016-Apr-19 01:31N 34°43' W 076°41'0 0.0
2016-Apr-19 00:31N 34°43' W 076°41'0 0.0
2016-Apr-18 23:31N 34°43' W 076°41'0 0.0
2016-Apr-18 22:31N 34°43' W 076°41'0 0.0
2016-Apr-18 21:31N 34°43' W 076°41'0 0.0
2016-Apr-18 20:31N 34°43' W 076°41'0 0.0
2016-Apr-18 19:31N 34°43' W 076°41'0 0.0
2016-Apr-18 18:22N 34°43' W 076°41'0 0.0
2016-Apr-18 17:31N 34°43' W 076°41'0 0.0
2016-Apr-18 16:28N 34°43' W 076°41'0 0.0
2016-Apr-18 15:31N 34°43' W 076°41'0 0.0
2016-Apr-18 14:31N 34°43' W 076°41'0 0.0
2016-Apr-18 13:31N 34°43' W 076°41'0 0.0
2016-Apr-18 12:28N 34°43' W 076°41'1 1.4
2016-Apr-18 11:33N 34°42' W 076°40'4 4.1
2016-Apr-18 10:31N 34°38' W 076°39'0 0.0
2016-Apr-18 09:31N 34°38' W 076°39'0 0.0
2016-Apr-18 08:31N 34°38' W 076°39'0 0.0
2016-Apr-18 07:28N 34°38' W 076°39'0 0.1
2016-Apr-18 06:31N 34°38' W 076°39'0 0.0
2016-Apr-18 05:33N 34°38' W 076°39'8 7.6
2016-Apr-18 04:33N 34°31' W 076°42'10 9.6
2016-Apr-18 03:33N 34°22' W 076°45'  
2016-Apr-15 18:27N 26°29' W 079°27'1314.3
2016-Apr-15 17:33N 26°17' W 079°28'1414.4
2016-Apr-15 16:33N 26°03' W 079°30'1514.6
2016-Apr-15 15:33N 25°48' W 079°32'  
Track history (hours):
 
Tides and Currents Weather Stations Pressure Air Temp Water Temp Dewpoint Dewpoint Depression Visibility Wind Speed Wind Dir Waves Ship Positions

Mitrope

Last reported at 2016-Apr-21 14:15 UTC. Time now 2016-May-06 13:05 UTC.
Position N 25°27' W 079°35'.
Warning: this ship's position is 14 days out of date.

Length 149 m; draft 7 m.

Type: Tanker. MMSI: 248360000.

Date/timePositionNaut miles runAvg speedWind from/ knotsBaromVisibWave heightAir tempDewpointWater temp
2016-Apr-21 14:15N 25°27' W 079°35'810.7
2016-Apr-21 13:31N 25°35' W 079°34'1010.6
2016-Apr-21 12:33N 25°45' W 079°33'1110.6
2016-Apr-21 11:33N 25°56' W 079°32'1110.7
2016-Apr-21 10:33N 26°07' W 079°30'1111.0
2016-Apr-21 09:33N 26°17' W 079°29'1111.1
2016-Apr-21 08:33N 26°29' W 079°27'35911.6
2016-Apr-20 01:30N 32°14' W 077°33'1010.3
2016-Apr-20 00:33N 32°23' W 077°30'9911.0
2016-Apr-19 15:33N 33°58' W 076°55'1212.3
2016-Apr-19 14:33N 34°09' W 076°51'1211.9
2016-Apr-19 13:33N 34°21' W 076°47'10 9.7
2016-Apr-19 12:33N 34°30' W 076°43'10 9.7
2016-Apr-19 11:33N 34°40' W 076°40'3 3.1
2016-Apr-19 10:28N 34°43' W 076°41'0 0.0
2016-Apr-19 09:31N 34°43' W 076°41'0 0.0
2016-Apr-19 08:22N 34°43' W 076°41'0 0.0
2016-Apr-19 07:31N 34°43' W 076°41'0 0.0
2016-Apr-19 06:31N 34°43' W 076°41'0 0.0
2016-Apr-19 05:31N 34°43' W 076°41'0 0.0
2016-Apr-19 04:31N 34°43' W 076°41'0 0.0
2016-Apr-19 03:31N 34°43' W 076°41'0 0.0
2016-Apr-19 02:31N 34°43' W 076°41'0 0.0
2016-Apr-19 01:31N 34°43' W 076°41'0 0.0
2016-Apr-19 00:31N 34°43' W 076°41'0 0.0
2016-Apr-18 23:31N 34°43' W 076°41'0 0.0
2016-Apr-18 22:31N 34°43' W 076°41'0 0.0
2016-Apr-18 21:31N 34°43' W 076°41'0 0.0
2016-Apr-18 20:31N 34°43' W 076°41'0 0.0
2016-Apr-18 19:31N 34°43' W 076°41'0 0.0
2016-Apr-18 18:22N 34°43' W 076°41'0 0.0
2016-Apr-18 17:31N 34°43' W 076°41'0 0.0
2016-Apr-18 16:28N 34°43' W 076°41'0 0.0
2016-Apr-18 15:31N 34°43' W 076°41'0 0.0
2016-Apr-18 14:31N 34°43' W 076°41'0 0.0
2016-Apr-18 13:31N 34°43' W 076°41'0 0.0
2016-Apr-18 12:28N 34°43' W 076°41'1 1.4
2016-Apr-18 11:33N 34°42' W 076°40'4 4.1
2016-Apr-18 10:31N 34°38' W 076°39'0 0.0
2016-Apr-18 09:31N 34°38' W 076°39'0 0.0
2016-Apr-18 08:31N 34°38' W 076°39'0 0.0
2016-Apr-18 07:28N 34°38' W 076°39'0 0.1
2016-Apr-18 06:31N 34°38' W 076°39'0 0.0
2016-Apr-18 05:33N 34°38' W 076°39'8 7.6
2016-Apr-18 04:33N 34°31' W 076°42'10 9.6
2016-Apr-18 03:33N 34°22' W 076°45'  
2016-Apr-15 18:27N 26°29' W 079°27'1314.3
2016-Apr-15 17:33N 26°17' W 079°28'1414.4
2016-Apr-15 16:33N 26°03' W 079°30'1514.6
2016-Apr-15 15:33N 25°48' W 079°32'  

Dump ship's entire track history